Time;durP1;ratioP1;P1;durP2;ratioP2;P2;SDS_P1;SDS_P2;PMS_P1;PMS_P2;Temp;Humidity;BMP_temperature;BMP_pressure;BME280_temperature;BME280_humidity;BME280_pressure;Samples;Min_cycle;Max_cycle;Signal;HPM_P1;HPM_P2
2021/09/17 00:00:01;;;;;;;6.40;4.50;;;13.10;97.60;;;;;;4976051;28;20085;-90
2021/09/17 00:02:27;;;;;;;9.05;5.97;;;13.00;97.20;;;;;;4976482;28;20036;-87
2021/09/17 00:04:52;;;;;;;7.35;4.13;;;13.00;97.40;;;;;;4959306;28;20113;-92
2021/09/17 00:07:18;;;;;;;5.70;3.67;;;13.10;97.30;;;;;;4958663;28;20018;-88
2021/09/17 00:09:44;;;;;;;3.88;3.10;;;13.00;96.90;;;;;;4977624;28;20033;-87
2021/09/17 00:12:10;;;;;;;5.22;3.65;;;13.00;97.20;;;;;;4959813;28;20026;-89
2021/09/17 00:14:35;;;;;;;5.57;4.55;;;13.00;97.40;;;;;;4975701;28;20022;-91
2021/09/17 00:17:01;;;;;;;4.53;4.13;;;12.90;97.10;;;;;;4961538;28;20172;-89
2021/09/17 00:19:27;;;;;;;6.60;4.80;;;12.90;97.40;;;;;;4963748;28;20478;-89
2021/09/17 00:21:52;;;;;;;10.88;5.50;;;12.90;97.30;;;;;;4959647;28;20026;-90
2021/09/17 00:24:18;;;;;;;8.68;6.22;;;12.90;97.50;;;;;;4959488;28;20032;-89
2021/09/17 00:26:43;;;;;;;5.60;4.00;;;12.80;97.80;;;;;;4974634;28;20094;-90
2021/09/17 00:29:09;;;;;;;8.98;6.93;;;12.90;97.70;;;;;;4963753;28;20095;-91
2021/09/17 00:31:34;;;;;;;9.50;6.20;;;12.90;98.50;;;;;;4976114;28;20026;-90
2021/09/17 00:34:00;;;;;;;10.77;7.25;;;12.80;97.80;;;;;;4956247;28;20053;-90
2021/09/17 00:36:25;;;;;;;6.53;4.43;;;12.80;98.00;;;;;;4958475;28;20092;-90
2021/09/17 00:38:51;;;;;;;11.23;7.18;;;12.90;98.00;;;;;;4961180;28;20034;-90
2021/09/17 00:41:17;;;;;;;10.60;5.80;;;12.90;97.90;;;;;;4960818;28;20109;-90
2021/09/17 00:43:42;;;;;;;7.85;4.05;;;12.90;97.60;;;;;;4974352;28;20057;-90
2021/09/17 00:46:08;;;;;;;9.45;6.80;;;12.90;97.60;;;;;;4960568;28;20030;-89
2021/09/17 00:48:33;;;;;;;8.50;5.07;;;12.90;97.80;;;;;;4957774;28;20113;-89
2021/09/17 00:50:59;;;;;;;11.85;8.27;;;13.00;97.90;;;;;;4963667;28;20030;-90
2021/09/17 00:53:25;;;;;;;11.95;7.78;;;12.90;98.50;;;;;;4958424;28;20402;-91
2021/09/17 00:55:51;;;;;;;6.32;5.45;;;12.90;98.00;;;;;;4963639;28;20465;-91
2021/09/17 00:58:16;;;;;;;10.63;8.40;;;12.90;97.90;;;;;;4960039;28;20062;-91
2021/09/17 01:00:42;;;;;;;16.05;10.52;;;13.00;98.60;;;;;;4961633;28;20153;-90
2021/09/17 01:03:09;;;;;;;16.67;11.38;;;13.00;98.50;;;;;;4993202;28;20109;-89
2021/09/17 01:05:35;;;;;;;12.20;8.60;;;13.00;98.80;;;;;;4959548;28;20034;-91
2021/09/17 01:08:00;;;;;;;10.02;8.57;;;12.90;98.30;;;;;;4956462;28;20037;-92
2021/09/17 01:10:26;;;;;;;11.02;8.40;;;13.00;97.90;;;;;;4991546;28;20034;-90
2021/09/17 01:12:55;;;;;;;8.18;6.28;;;13.10;97.90;;;;;;4958213;28;20036;-89
2021/09/17 01:15:20;;;;;;;16.83;10.80;;;13.00;98.00;;;;;;4975980;28;20088;-90
2021/09/17 01:17:46;;;;;;;8.43;6.43;;;13.00;99.70;;;;;;4958252;28;20400;-89
2021/09/17 01:20:15;;;;;;;11.82;8.57;;;13.00;98.30;;;;;;4958076;28;20038;-90
2021/09/17 01:22:40;;;;;;;10.90;8.15;;;13.00;98.30;;;;;;4959594;28;20080;-90
2021/09/17 01:25:07;;;;;;;16.83;11.13;;;13.00;98.10;;;;;;4976860;28;20037;-90
2021/09/17 01:27:32;;;;;;;14.48;8.65;;;13.20;98.60;;;;;;4966442;28;20058;-90
2021/09/17 01:29:58;;;;;;;21.83;12.95;;;13.10;98.20;;;;;;4963245;28;20041;-89
2021/09/17 01:32:24;;;;;;;13.55;10.43;;;13.00;99.10;;;;;;4964011;28;20038;-89
2021/09/17 01:34:49;;;;;;;19.42;14.00;;;13.10;98.40;;;;;;4965900;28;20038;-91
2021/09/17 01:37:15;;;;;;;17.30;10.90;;;13.10;99.20;;;;;;4964057;28;20049;-90
2021/09/17 01:39:40;;;;;;;23.40;15.52;;;13.10;98.70;;;;;;4960622;28;20034;-90
2021/09/17 01:42:06;;;;;;;21.80;14.80;;;13.10;99.50;;;;;;4979832;28;20370;-90
2021/09/17 01:44:38;;;;;;;23.50;14.50;;;13.10;98.80;;;;;;4978787;28;20485;-89
2021/09/17 01:47:04;;;;;;;20.38;14.35;;;13.00;98.40;;;;;;4974114;28;20431;-89
2021/09/17 01:49:30;;;;;;;13.75;9.77;;;13.10;99.10;;;;;;4956287;28;20382;-90
2021/09/17 01:51:56;;;;;;;22.25;14.15;;;13.10;98.20;;;;;;4963366;28;20037;-90
2021/09/17 01:54:21;;;;;;;26.67;15.27;;;13.20;98.40;;;;;;4960421;28;20056;-90
2021/09/17 01:56:47;;;;;;;19.83;13.82;;;13.10;98.40;;;;;;4987681;28;20481;-90
2021/09/17 01:59:12;;;;;;;15.00;10.13;;;13.10;98.10;;;;;;4979066;28;20034;-91
2021/09/17 02:01:38;;;;;;;28.63;15.88;;;13.10;98.00;;;;;;4990444;28;20068;-89
2021/09/17 02:04:04;;;;;;;26.05;16.63;;;13.10;98.70;;;;;;4978283;28;20198;-88
2021/09/17 02:06:29;;;;;;;25.92;18.65;;;13.10;99.30;;;;;;4965952;28;20033;-91
2021/09/17 02:08:56;;;;;;;29.45;20.40;;;13.00;99.80;;;;;;4966093;28;20030;-91
2021/09/17 02:11:30;;;;;;;33.28;19.70;;;13.00;99.90;;;;;;4963120;28;20042;-90
2021/09/17 02:13:56;;;;;;;34.70;21.60;;;13.10;99.90;;;;;;4966221;28;20029;-90
2021/09/17 02:16:21;;;;;;;31.88;21.30;;;13.10;99.20;;;;;;4958729;28;20498;-88
2021/09/17 02:18:47;;;;;;;25.90;17.23;;;13.10;99.80;;;;;;4977257;28;20504;-90
2021/09/17 02:21:20;;;;;;;23.15;15.48;;;13.10;98.50;;;;;;4979319;28;20548;-90
2021/09/17 02:23:46;;;;;;;26.42;18.25;;;13.20;98.50;;;;;;4954548;28;20034;-91
2021/09/17 02:26:11;;;;;;;25.23;15.82;;;13.30;98.60;;;;;;4994934;28;20121;-90
2021/09/17 02:28:37;;;;;;;32.42;20.50;;;13.30;98.90;;;;;;4974584;28;20058;-90
2021/09/17 02:31:02;;;;;;;37.85;23.80;;;13.20;99.20;;;;;;4992783;28;20633;-91
2021/09/17 02:33:28;;;;;;;30.17;20.25;;;13.20;99.90;;;;;;4959284;28;20151;-91
2021/09/17 02:35:54;;;;;;;29.88;19.35;;;13.20;99.50;;;;;;4993598;28;20037;-90
2021/09/17 02:38:20;;;;;;;24.20;15.40;;;13.30;98.30;;;;;;4958329;28;20022;-90
2021/09/17 02:40:46;;;;;;;20.23;13.68;;;13.30;98.70;;;;;;4963400;28;20034;-90
2021/09/17 02:43:15;;;;;;;21.08;14.85;;;13.20;98.80;;;;;;4981536;28;20087;-90
2021/09/17 02:45:41;;;;;;;16.52;11.38;;;13.30;98.90;;;;;;4955043;28;20041;-91
2021/09/17 02:48:06;;;;;;;31.73;22.23;;;13.40;98.50;;;;;;4973953;28;20038;-91
2021/09/17 02:50:32;;;;;;;35.90;23.17;;;13.40;99.90;;;;;;4962017;28;20426;-90
2021/09/17 02:52:58;;;;;;;23.55;15.85;;;13.30;99.90;;;;;;4976728;28;20109;-93
2021/09/17 02:55:23;;;;;;;40.35;25.00;;;13.40;99.50;;;;;;4967823;28;20038;-93
2021/09/17 02:57:55;;;;;;;43.00;27.35;;;13.40;99.80;;;;;;4994557;28;20026;-94
2021/09/17 03:00:21;;;;;;;40.03;24.75;;;13.30;99.90;;;;;;4964019;28;20089;-94
2021/09/17 03:02:46;;;;;;;46.88;28.15;;;13.30;99.90;;;;;;4963355;28;20018;-94
2021/09/17 03:05:12;;;;;;;31.33;19.73;;;13.30;99.90;;;;;;4982206;28;20025;-94
2021/09/17 03:07:38;;;;;;;47.55;28.52;;;13.30;99.00;;;;;;4998713;28;20060;-94
2021/09/17 03:10:04;;;;;;;30.75;19.45;;;13.30;99.90;;;;;;4997234;28;20078;-94
2021/09/17 03:12:30;;;;;;;20.83;13.73;;;13.40;98.80;;;;;;4966887;28;20050;-94
2021/09/17 03:14:56;;;;;;;38.92;26.58;;;13.50;98.20;;;;;;4998286;28;20026;-93
2021/09/17 03:17:21;;;;;;;19.38;13.48;;;13.50;99.50;;;;;;4964505;28;20624;-94
2021/09/17 03:19:47;;;;;;;38.65;22.52;;;13.50;98.50;;;;;;4982823;28;20061;-94
2021/09/17 03:22:13;;;;;;;38.65;25.65;;;13.50;98.50;;;;;;4996791;28;20050;-94
2021/09/17 03:24:38;;;;;;;24.67;15.88;;;13.40;99.80;;;;;;4980631;28;20092;-95
2021/09/17 03:27:04;;;;;;;38.08;25.00;;;13.50;98.70;;;;;;4984745;28;20215;-95
2021/09/17 03:29:31;;;;;;;34.88;23.42;;;13.50;98.80;;;;;;4970588;28;20442;-95
2021/09/17 03:31:56;;;;;;;25.17;15.82;;;13.50;99.20;;;;;;4989113;28;20037;-94
2021/09/17 03:34:22;;;;;;;21.65;14.85;;;13.50;98.90;;;;;;4971921;28;20046;-95
2021/09/17 03:36:48;;;;;;;34.00;23.77;;;13.60;98.70;;;;;;4964271;28;20049;-95
2021/09/17 03:39:14;;;;;;;30.35;20.88;;;13.50;99.60;;;;;;4966136;28;20057;-95
2021/09/17 03:41:40;;;;;;;26.42;18.63;;;13.50;99.10;;;;;;4993505;28;20478;-94
2021/09/17 03:44:06;;;;;;;27.85;18.05;;;13.50;98.80;;;;;;4997467;28;20051;-95
2021/09/17 03:46:31;;;;;;;35.63;20.42;;;13.50;98.30;;;;;;4961370;28;20034;-95
2021/09/17 03:48:57;;;;;;;27.33;18.77;;;13.50;98.60;;;;;;4963597;28;20032;-94
2021/09/17 03:51:24;;;;;;;41.28;25.60;;;13.60;98.20;;;;;;4960521;28;20393;-95
2021/09/17 03:53:51;;;;;;;46.42;28.95;;;13.60;98.70;;;;;;4993119;28;20061;-94
2021/09/17 03:56:16;;;;;;;24.50;16.20;;;13.60;99.90;;;;;;4963773;28;20037;-93
2021/09/17 03:58:42;;;;;;;27.52;19.33;;;13.60;98.80;;;;;;4983524;28;20061;-95
2021/09/17 04:01:08;;;;;;;30.00;19.15;;;13.50;98.90;;;;;;4955587;28;20042;-94
2021/09/17 04:03:34;;;;;;;24.20;16.83;;;13.60;98.60;;;;;;4974688;28;20423;-95
2021/09/17 04:05:59;;;;;;;35.35;23.42;;;13.60;98.80;;;;;;4980225;28;20041;-94
2021/09/17 04:08:25;;;;;;;41.95;29.17;;;13.60;98.80;;;;;;4967468;28;20049;-93
2021/09/17 04:10:51;;;;;;;37.33;24.00;;;13.60;99.90;;;;;;4954266;28;20767;-93
2021/09/17 04:13:16;;;;;;;37.08;24.55;;;13.60;99.50;;;;;;4959971;28;20041;-94
2021/09/17 04:15:42;;;;;;;49.15;31.98;;;13.50;98.90;;;;;;4980735;28;20045;-94
2021/09/17 04:18:08;;;;;;;60.60;33.65;;;13.50;99.90;;;;;;4965352;28;20049;-94
2021/09/17 04:20:33;;;;;;;54.30;34.40;;;13.60;99.70;;;;;;4961706;28;20045;-94
2021/09/17 04:22:59;;;;;;;33.22;21.30;;;13.50;99.90;;;;;;4964063;28;20528;-94
2021/09/17 04:25:25;;;;;;;45.33;29.60;;;13.50;99.40;;;;;;4952699;28;20044;-94
2021/09/17 04:27:50;;;;;;;40.30;27.10;;;13.50;98.90;;;;;;4978613;28;20034;-93
2021/09/17 04:30:16;;;;;;;32.80;20.92;;;13.60;99.90;;;;;;4955449;28;20121;-94
2021/09/17 04:32:42;;;;;;;36.05;23.58;;;13.50;99.00;;;;;;4961674;28;20371;-94
2021/09/17 04:35:08;;;;;;;53.05;30.67;;;13.60;99.10;;;;;;4961206;28;20049;-94
2021/09/17 04:37:39;;;;;;;49.72;32.97;;;13.60;99.90;;;;;;4979376;28;20038;-93
2021/09/17 04:40:05;;;;;;;26.77;18.35;;;13.60;99.80;;;;;;4959116;28;20034;-93
2021/09/17 04:42:30;;;;;;;35.63;23.63;;;13.50;99.10;;;;;;4962509;28;20042;-94
2021/09/17 04:44:56;;;;;;;47.05;30.63;;;13.60;98.90;;;;;;4990815;28;20076;-94
2021/09/17 04:47:21;;;;;;;49.92;31.52;;;13.50;98.90;;;;;;4954015;28;20106;-93
2021/09/17 04:49:47;;;;;;;38.42;25.55;;;13.50;99.50;;;;;;4959948;28;20031;-94
2021/09/17 04:52:13;;;;;;;35.97;21.98;;;13.60;99.10;;;;;;4994815;28;20034;-94
2021/09/17 04:54:38;;;;;;;46.47;30.38;;;13.70;98.80;;;;;;4976040;28;20034;-94
2021/09/17 04:57:05;;;;;;;51.80;31.85;;;13.60;99.40;;;;;;4976046;28;20042;-94
2021/09/17 04:59:31;;;;;;;34.58;24.02;;;13.60;98.80;;;;;;4967428;28;20037;-95
2021/09/17 05:01:56;;;;;;;58.10;34.35;;;13.60;98.70;;;;;;4968944;28;20030;-95
2021/09/17 05:04:24;;;;;;;44.35;27.48;;;13.60;99.90;;;;;;4968981;28;20062;-96
2021/09/17 05:06:49;;;;;;;55.22;33.35;;;13.60;98.80;;;;;;4972215;28;20022;-95
2021/09/17 05:09:15;;;;;;;47.90;31.25;;;13.60;99.90;;;;;;4974013;28;20034;-94
2021/09/17 05:11:42;;;;;;;55.28;33.08;;;13.60;98.90;;;;;;4979695;28;20078;-93
2021/09/17 05:14:07;;;;;;;56.30;35.35;;;13.60;99.40;;;;;;4966876;28;20034;-94
2021/09/17 05:16:37;;;;;;;48.70;28.65;;;13.50;99.90;;;;;;4964809;28;20038;-94
2021/09/17 05:19:03;;;;;;;64.15;37.97;;;13.50;99.00;;;;;;5003127;28;20037;-92
2021/09/17 05:21:29;;;;;;;63.72;37.25;;;13.50;99.90;;;;;;4966793;28;20030;-92
2021/09/17 05:23:54;;;;;;;65.32;38.38;;;13.50;99.90;;;;;;4974096;28;20062;-92
2021/09/17 05:26:20;;;;;;;37.40;24.35;;;13.60;99.90;;;;;;4967742;28;20038;-93
2021/09/17 05:28:47;;;;;;;55.80;34.55;;;13.60;99.10;;;;;;5004631;28;20040;-93
2021/09/17 05:31:13;;;;;;;58.40;36.90;;;13.60;99.60;;;;;;5003035;28;20057;-93
2021/09/17 05:33:38;;;;;;;67.03;39.38;;;13.60;99.90;;;;;;5003338;28;20045;-92
2021/09/17 05:36:04;;;;;;;48.85;31.60;;;13.60;99.90;;;;;;4975759;28;20046;-93
2021/09/17 05:38:31;;;;;;;48.30;30.25;;;13.60;99.40;;;;;;4972440;28;20046;-94
2021/09/17 05:40:57;;;;;;;29.95;20.45;;;13.60;99.30;;;;;;4989651;28;20037;-94
2021/09/17 05:43:22;;;;;;;40.47;24.08;;;13.70;98.90;;;;;;4968356;28;20093;-94
2021/09/17 05:45:48;;;;;;;47.65;30.40;;;13.70;99.00;;;;;;4977610;28;20037;-93
2021/09/17 05:48:14;;;;;;;58.25;34.40;;;13.70;99.90;;;;;;4972670;28;20030;-93
2021/09/17 05:50:40;;;;;;;51.05;31.23;;;13.70;99.90;;;;;;4963320;28;20145;-92
2021/09/17 05:53:07;;;;;;;38.53;25.52;;;13.70;99.20;;;;;;4989168;28;20033;-93
2021/09/17 05:55:39;;;;;;;55.17;35.03;;;13.70;99.30;;;;;;4969156;28;20098;-93
2021/09/17 05:58:05;;;;;;;67.95;34.85;;;13.70;99.90;;;;;;4984413;28;20036;-93
2021/09/17 06:00:31;;;;;;;47.95;29.77;;;13.70;99.40;;;;;;4971710;28;20049;-94
2021/09/17 06:02:56;;;;;;;51.40;32.50;;;13.80;99.50;;;;;;4993785;28;20097;-94
2021/09/17 06:05:22;;;;;;;39.60;24.30;;;13.90;99.30;;;;;;4963968;28;20057;-93
2021/09/17 06:07:48;;;;;;;43.65;29.08;;;13.90;99.00;;;;;;5001160;28;20405;-92
2021/09/17 06:10:16;;;;;;;31.00;21.40;;;14.00;99.20;;;;;;4999866;28;20486;-95
2021/09/17 06:12:41;;;;;;;51.08;33.70;;;14.00;98.80;;;;;;4966747;28;20042;-93
2021/09/17 06:15:08;;;;;;;64.43;37.55;;;14.00;99.40;;;;;;4979268;28;20517;-93
2021/09/17 06:17:42;;;;;;;35.38;22.17;;;14.00;99.60;;;;;;4618283;28;10000515;-94
2021/09/17 06:20:09;;;;;;;29.45;19.60;;;14.10;98.70;;;;;;4963952;28;20068;-94
2021/09/17 06:22:45;;;;;;;36.95;26.00;;;14.10;98.60;;;;;;4963601;28;20038;-92
2021/09/17 06:25:15;;;;;;;29.05;19.67;;;14.20;98.80;;;;;;4970218;28;20026;-93
2021/09/17 06:27:43;;;;;;;39.45;25.05;;;14.20;98.80;;;;;;4945037;28;20044;-94
2021/09/17 06:30:09;;;;;;;33.08;22.02;;;14.20;98.50;;;;;;4954955;28;20042;-93
2021/09/17 06:32:41;;;;;;;35.90;22.85;;;14.30;98.60;;;;;;4969359;28;20054;-93
2021/09/17 06:35:07;;;;;;;26.35;18.10;;;14.30;99.00;;;;;;4946147;28;20098;-94
2021/09/17 06:37:34;;;;;;;48.58;30.02;;;14.30;98.30;;;;;;4956800;28;20042;-93
2021/09/17 06:40:01;;;;;;;55.90;34.08;;;14.30;98.40;;;;;;4997510;28;20032;-93
2021/09/17 06:42:28;;;;;;;43.17;27.45;;;14.40;99.80;;;;;;4969720;28;20041;-93
2021/09/17 06:44:53;;;;;;;35.15;21.75;;;14.50;98.70;;;;;;4968247;28;20048;-92
2021/09/17 06:47:19;;;;;;;42.58;27.65;;;14.60;98.70;;;;;;4966149;28;20046;-94
2021/09/17 06:50:00;;;;;;;33.05;21.63;;;14.50;98.20;;;;;;4964422;28;20027;-93
2021/09/17 06:52:26;;;;;;;29.67;19.75;;;14.60;98.40;;;;;;4960213;28;20048;-94
2021/09/17 06:54:52;;;;;;;56.28;31.65;;;14.70;98.70;;;;;;4979380;28;20117;-94
2021/09/17 06:57:24;;;;;;;54.75;32.92;;;14.70;99.00;;;;;;4966958;28;20037;-93
2021/09/17 06:59:49;;;;;;;31.92;20.17;;;14.80;98.40;;;;;;4962167;28;20038;-94
2021/09/17 07:02:15;;;;;;;32.95;20.80;;;15.00;97.90;;;;;;4978211;22;20022;-84
2021/09/17 07:04:44;;;;;;;44.33;27.00;;;15.00;98.10;;;;;;5014088;28;20580;-84
2021/09/17 07:07:10;;;;;;;36.22;22.77;;;15.10;98.10;;;;;;4987739;28;20042;-84
2021/09/17 07:09:35;;;;;;;44.30;27.75;;;15.10;98.70;;;;;;5012858;28;20044;-84
2021/09/17 07:12:01;;;;;;;31.20;19.95;;;15.10;99.20;;;;;;4996225;28;20021;-84
2021/09/17 07:14:27;;;;;;;45.45;26.50;;;15.30;98.90;;;;;;5029326;28;20029;-84
2021/09/17 07:16:52;;;;;;;50.75;33.45;;;15.30;98.90;;;;;;5011930;28;20042;-84
2021/09/17 07:19:18;;;;;;;36.90;24.08;;;15.40;99.60;;;;;;5030598;28;20030;-84
2021/09/17 07:21:44;;;;;;;37.72;22.67;;;15.50;99.10;;;;;;5013130;28;20107;-83
2021/09/17 07:24:10;;;;;;;47.38;28.25;;;15.60;98.00;;;;;;5011378;28;20033;-83
2021/09/17 07:26:35;;;;;;;42.47;29.13;;;15.60;98.50;;;;;;4993668;28;20091;-83
2021/09/17 07:29:01;;;;;;;37.05;25.05;;;15.70;99.70;;;;;;5010125;28;20087;-84
2021/09/17 07:31:27;;;;;;;33.55;22.80;;;15.90;98.30;;;;;;5029071;28;20044;-84
2021/09/17 07:33:53;;;;;;;35.10;22.50;;;15.80;99.00;;;;;;4997144;28;20030;-85
2021/09/17 07:36:19;;;;;;;45.38;29.92;;;15.90;99.00;;;;;;5033505;28;20083;-84
2021/09/17 07:38:44;;;;;;;60.15;35.20;;;16.00;99.10;;;;;;5011979;28;20037;-84
2021/09/17 07:41:16;;;;;;;52.53;34.80;;;16.30;99.90;;;;;;5013622;28;20369;-84
2021/09/17 07:43:42;;;;;;;59.75;35.78;;;16.40;99.70;;;;;;5022940;28;20040;-84
2021/09/17 07:46:08;;;;;;;55.38;34.63;;;16.50;99.80;;;;;;5025123;28;20022;-84
2021/09/17 07:48:34;;;;;;;49.42;30.98;;;16.70;99.90;;;;;;5029103;28;20036;-84
2021/09/17 07:50:59;;;;;;;55.33;31.70;;;16.80;99.90;;;;;;5011784;28;20084;-85
2021/09/17 07:53:25;;;;;;;36.30;23.08;;;17.00;99.10;;;;;;5030059;28;20025;-84
2021/09/17 07:55:51;;;;;;;45.58;28.35;;;17.10;99.70;;;;;;5015550;28;20030;-84
2021/09/17 07:58:16;;;;;;;47.45;30.25;;;17.20;99.00;;;;;;5030546;28;20108;-84
2021/09/17 08:00:42;;;;;;;38.33;24.80;;;17.30;99.60;;;;;;5001878;28;20105;-85
2021/09/17 08:03:07;;;;;;;46.08;27.55;;;17.40;99.20;;;;;;5015957;28;20033;-85
2021/09/17 08:05:33;;;;;;;37.35;22.80;;;17.60;99.90;;;;;;5012734;28;20029;-85
2021/09/17 08:07:59;;;;;;;36.78;24.52;;;17.70;98.90;;;;;;5011788;28;20059;-84
2021/09/17 08:10:25;;;;;;;42.80;27.13;;;17.80;98.80;;;;;;5026932;28;20022;-84
2021/09/17 08:12:50;;;;;;;40.75;24.83;;;18.00;98.30;;;;;;5011778;28;20028;-84
2021/09/17 08:15:16;;;;;;;41.88;26.30;;;18.00;98.20;;;;;;5033914;28;20029;-84
2021/09/17 08:17:42;;;;;;;40.13;24.42;;;18.00;98.30;;;;;;4997188;28;20042;-84
2021/09/17 08:20:08;;;;;;;44.28;27.02;;;18.10;98.50;;;;;;4997655;28;20029;-84
2021/09/17 08:22:33;;;;;;;37.40;23.98;;;18.20;99.10;;;;;;5029847;28;20042;-85
2021/09/17 08:24:59;;;;;;;37.65;23.27;;;18.20;97.40;;;;;;5010884;28;20041;-84
2021/09/17 08:27:24;;;;;;;43.78;25.40;;;18.30;97.60;;;;;;5012894;28;20442;-84
2021/09/17 08:29:50;;;;;;;37.15;22.80;;;18.30;97.90;;;;;;5011642;28;20710;-84
2021/09/17 08:32:15;;;;;;;36.97;25.95;;;18.40;97.50;;;;;;5011803;28;20029;-84
2021/09/17 08:34:41;;;;;;;38.70;26.33;;;18.40;97.90;;;;;;5013852;28;20088;-84
2021/09/17 08:37:09;;;;;;;44.05;29.38;;;18.50;96.90;;;;;;5011120;28;20028;-84
2021/09/17 08:39:37;;;;;;;42.83;28.33;;;18.60;96.90;;;;;;5016047;28;20033;-84
2021/09/17 08:42:03;;;;;;;45.65;29.48;;;18.90;96.20;;;;;;5012728;28;20083;-84
2021/09/17 08:44:28;;;;;;;41.90;28.42;;;19.00;96.20;;;;;;5015419;28;20485;-84
2021/09/17 08:46:54;;;;;;;37.85;26.65;;;19.20;96.10;;;;;;5015949;28;20056;-85
2021/09/17 08:49:23;;;;;;;42.33;26.23;;;19.20;96.70;;;;;;5014046;28;20071;-84
2021/09/17 08:51:48;;;;;;;41.53;25.92;;;19.20;96.80;;;;;;4999436;28;20036;-84
2021/09/17 08:54:14;;;;;;;35.05;24.65;;;19.40;96.30;;;;;;5018018;28;20021;-85
2021/09/17 08:56:39;;;;;;;35.15;22.48;;;19.40;96.50;;;;;;5030817;28;20034;-85
2021/09/17 08:59:05;;;;;;;38.55;24.05;;;19.60;95.80;;;;;;5000167;28;20432;-85
2021/09/17 09:01:36;;;;;;;32.63;21.52;;;19.90;95.60;;;;;;5020211;28;20120;-84
2021/09/17 09:04:04;;;;;;;35.20;23.30;;;19.70;95.70;;;;;;5016348;28;20399;-85
2021/09/17 09:06:36;;;;;;;29.73;19.98;;;19.60;96.40;;;;;;5012404;28;20035;-85
2021/09/17 09:09:03;;;;;;;30.33;20.63;;;19.80;96.80;;;;;;5029584;28;20570;-85
2021/09/17 09:11:39;;;;;;;25.73;17.30;;;19.80;96.50;;;;;;5015134;28;20124;-84
2021/09/17 09:14:05;;;;;;;26.67;18.58;;;20.30;96.40;;;;;;5000129;28;20121;-85
2021/09/17 09:16:32;;;;;;;26.02;18.00;;;20.60;94.50;;;;;;5028181;28;20132;-85
2021/09/17 09:19:20;;;;;;;23.50;15.57;;;20.90;94.60;;;;;;4996951;28;20029;-85
2021/09/17 09:21:46;;;;;;;24.83;18.02;;;20.80;95.80;;;;;;5021958;28;20044;-85
2021/09/17 09:24:14;;;;;;;35.28;17.73;;;20.90;95.30;;;;;;5011499;28;20036;-85
2021/09/17 09:26:40;;;;;;;26.25;16.40;;;21.00;95.30;;;;;;5026563;28;20033;-85
2021/09/17 09:29:06;;;;;;;23.42;16.45;;;21.30;95.00;;;;;;5010415;28;20040;-85
2021/09/17 09:31:41;;;;;;;30.17;19.15;;;21.40;95.50;;;;;;5027821;28;20676;-85
2021/09/17 09:34:07;;;;;;;25.90;15.60;;;21.40;95.10;;;;;;5009482;28;20041;-85
2021/09/17 09:36:35;;;;;;;24.02;15.25;;;21.90;94.50;;;;;;5029311;28;20041;-85
2021/09/17 09:39:03;;;;;;;23.75;14.95;;;21.90;94.10;;;;;;5008907;28;20072;-84
2021/09/17 09:41:33;;;;;;;25.48;14.25;;;22.20;94.70;;;;;;5028169;28;20396;-85
2021/09/17 09:44:05;;;;;;;22.13;14.77;;;22.40;93.60;;;;;;5007957;28;20029;-85
2021/09/17 09:46:31;;;;;;;23.67;15.00;;;22.50;95.60;;;;;;5030488;28;20515;-85
2021/09/17 09:49:03;;;;;;;19.00;13.73;;;22.50;95.70;;;;;;5013424;28;20033;-85
2021/09/17 09:51:32;;;;;;;21.73;14.27;;;22.60;95.20;;;;;;5048558;28;20037;-85
2021/09/17 09:54:00;;;;;;;19.08;12.95;;;22.80;95.10;;;;;;5016081;28;20120;-85
2021/09/17 09:56:25;;;;;;;18.73;12.27;;;22.90;94.70;;;;;;5032893;28;20539;-85
2021/09/17 09:58:51;;;;;;;21.25;12.32;;;23.10;95.10;;;;;;5011056;28;20061;-85
2021/09/17 10:01:17;;;;;;;18.98;13.70;;;23.10;95.20;;;;;;5015626;28;20021;-85
2021/09/17 10:03:44;;;;;;;21.58;13.05;;;23.20;94.50;;;;;;4999291;28;20033;-85
2021/09/17 10:06:09;;;;;;;19.15;12.90;;;23.40;94.50;;;;;;5012628;28;20061;-85
2021/09/17 10:08:35;;;;;;;15.60;11.13;;;23.40;94.70;;;;;;5032508;28;20065;-84
2021/09/17 10:11:01;;;;;;;15.75;11.93;;;23.30;92.70;;;;;;5013863;28;20026;-84
2021/09/17 10:13:27;;;;;;;15.90;11.43;;;23.30;92.10;;;;;;5033772;28;20038;-85
2021/09/17 10:15:52;;;;;;;13.95;10.20;;;23.40;93.50;;;;;;5012148;28;20039;-85
2021/09/17 10:18:18;;;;;;;16.85;10.68;;;23.30;94.20;;;;;;5033291;28;20108;-83
2021/09/17 10:20:56;;;;;;;15.20;11.00;;;23.40;91.80;;;;;;5012211;28;20029;-86
2021/09/17 10:23:26;;;;;;;16.05;10.90;;;23.30;92.70;;;;;;5030085;28;20109;-84
2021/09/17 10:26:02;;;;;;;17.52;11.52;;;23.40;92.40;;;;;;5029928;28;20413;-84
2021/09/17 10:28:28;;;;;;;16.15;10.77;;;23.30;90.80;;;;;;5031790;28;20036;-84
2021/09/17 10:30:53;;;;;;;16.17;11.52;;;23.40;92.00;;;;;;5015961;28;20030;-84
2021/09/17 10:33:23;;;;;;;17.70;11.05;;;23.60;93.30;;;;;;5032662;28;20025;-84
2021/09/17 10:35:49;;;;;;;17.20;11.30;;;23.70;92.40;;;;;;5000857;28;20038;-84
2021/09/17 10:38:18;;;;;;;16.63;11.57;;;23.90;93.50;;;;;;5012702;28;20029;-84
2021/09/17 10:40:50;;;;;;;15.23;10.75;;;24.00;93.20;;;;;;5030014;28;20033;-85
2021/09/17 10:43:18;;;;;;;15.00;9.88;;;24.00;93.20;;;;;;5032151;28;20654;-84
2021/09/17 10:45:51;;;;;;;18.25;10.32;;;24.10;92.10;;;;;;5013422;28;20062;-85
2021/09/17 10:48:18;;;;;;;12.77;8.38;;;24.20;92.10;;;;;;5011626;28;20037;-85
2021/09/17 10:50:48;;;;;;;15.18;11.57;;;24.20;90.60;;;;;;5031054;28;20500;-83
2021/09/17 10:53:34;;;;;;;16.80;10.15;;;24.30;92.20;;;;;;5013087;28;20021;-85
2021/09/17 10:56:03;;;;;;;13.30;9.90;;;24.40;88.70;;;;;;5015664;28;20396;-84
2021/09/17 10:58:32;;;;;;;16.05;10.77;;;24.00;87.30;;;;;;5029838;28;20091;-84
2021/09/17 11:01:06;;;;;;;14.30;8.98;;;24.20;91.20;;;;;;4989711;28;20057;-84
2021/09/17 11:03:40;;;;;;;16.35;10.45;;;24.50;88.10;;;;;;5012353;28;20041;-84
2021/09/17 11:06:18;;;;;;;16.33;10.00;;;24.70;91.30;;;;;;5032510;28;20476;-84
2021/09/17 11:08:53;;;;;;;14.90;10.80;;;24.80;89.00;;;;;;5045430;28;20037;-84
2021/09/17 11:11:46;;;;;;;18.17;12.20;;;24.80;90.90;;;;;;5029906;28;20026;-85
2021/09/17 11:14:14;;;;;;;18.80;11.95;;;25.00;90.60;;;;;;5038009;28;20087;-84
2021/09/17 11:16:40;;;;;;;14.35;8.93;;;25.10;90.50;;;;;;5031018;28;20044;-84
2021/09/17 11:19:08;;;;;;;12.02;7.30;;;25.20;90.20;;;;;;4996064;28;20026;-84
2021/09/17 11:21:38;;;;;;;9.90;7.05;;;25.20;89.20;;;;;;5019933;28;20057;-85
2021/09/17 11:24:05;;;;;;;8.48;6.32;;;25.20;88.00;;;;;;5027824;28;20596;-84
2021/09/17 11:26:34;;;;;;;9.10;6.55;;;25.10;86.70;;;;;;5031255;28;20025;-84
2021/09/17 11:29:02;;;;;;;9.55;7.78;;;25.20;90.10;;;;;;5025934;28;20108;-84
2021/09/17 11:31:34;;;;;;;12.25;8.20;;;25.30;88.90;;;;;;5028551;28;20025;-84
2021/09/17 11:34:03;;;;;;;13.40;9.15;;;25.30;86.60;;;;;;4987192;28;20029;-85
2021/09/17 11:36:51;;;;;;;9.45;7.43;;;25.40;87.20;;;;;;5014383;28;20120;-85
2021/09/17 11:39:26;;;;;;;10.05;5.72;;;25.40;88.20;;;;;;5011950;28;20036;-85
2021/09/17 11:42:05;;;;;;;10.90;7.03;;;25.30;85.00;;;;;;5012288;28;20095;-85
2021/09/17 11:44:40;;;;;;;13.35;8.15;;;25.30;87.70;;;;;;5026570;28;20045;-85
2021/09/17 11:47:09;;;;;;;10.07;6.35;;;25.40;86.80;;;;;;5028492;28;20089;-85
2021/09/17 11:49:38;;;;;;;10.80;8.25;;;25.30;87.50;;;;;;5025141;28;20052;-85
2021/09/17 11:52:08;;;;;;;14.10;9.68;;;25.20;88.20;;;;;;5011428;28;20039;-85
2021/09/17 11:54:34;;;;;;;12.50;8.45;;;25.30;88.40;;;;;;5011687;28;20049;-85
2021/09/17 11:57:07;;;;;;;9.18;6.95;;;25.30;84.80;;;;;;4995145;28;20099;-85
2021/09/17 11:59:45;;;;;;;10.52;7.57;;;25.30;86.60;;;;;;4996780;28;20370;-85
2021/09/17 12:02:11;;;;;;;14.45;7.80;;;25.50;85.00;;;;;;5012934;28;20093;-86
2021/09/17 12:04:36;;;;;;;11.88;7.72;;;25.50;86.60;;;;;;5043484;28;20033;-85
2021/09/17 12:07:02;;;;;;;10.30;8.50;;;25.50;83.30;;;;;;5013698;28;20494;-85
2021/09/17 12:09:28;;;;;;;10.60;7.32;;;25.50;83.50;;;;;;5031015;28;20052;-85
2021/09/17 12:11:57;;;;;;;10.52;8.30;;;25.70;87.70;;;;;;5013004;28;20104;-85
2021/09/17 12:14:23;;;;;;;11.63;8.35;;;25.60;87.20;;;;;;4993057;28;20079;-85
2021/09/17 12:16:49;;;;;;;11.60;7.68;;;25.60;86.00;;;;;;4993871;28;20473;-86
2021/09/17 12:19:27;;;;;;;11.98;8.35;;;26.00;83.60;;;;;;5013219;28;20033;-86
2021/09/17 12:22:02;;;;;;;14.95;9.38;;;25.90;84.50;;;;;;5013598;28;20508;-86
2021/09/17 12:24:27;;;;;;;15.13;10.88;;;25.90;82.50;;;;;;5028002;28;20026;-86
2021/09/17 12:26:58;;;;;;;13.93;9.82;;;25.80;82.00;;;;;;5012396;28;20032;-87
2021/09/17 12:29:24;;;;;;;10.30;8.57;;;25.70;80.70;;;;;;5012393;28;20057;-87